Terminal Aerodrome Forecast
Issued by NWS

Home | Current Version | Previous Version | Graphics & Text | Print | Product List | Glossary On
Versions: 1 2 3 4 5 6 7 8 9 10 11 12 13 14 15 16 17 18 19 20 21 22 23 24 25 26 27 28 29 30 31
000
FTUS43 KLOT 170900 AAA
TAFGYY
TAF AMD
KGYY 170900Z 1709/1806 16008KT P6SM OVC017
     FM171100 16010KT P6SM SCT017 BKN150
     FM171500 16015G23KT P6SM SCT025 BKN035
     FM172200 16015G23KT P6SM -SHRA SCT015 BKN025
     FM180100 18015G21KT 4SM -RA OVC010
     FM180500 19012KT 3SM -RA BR OVC007=

USA.gov is the U.S. government's official web portal to all federal, state and local government web resources and services.